Weather History for KBZN - January, 2013

Change the Weather History Date:

Thursday, January 10, 2013

  Actual Average Record
Temperature  
Mean Temperature 27 °F 23 °F  
Max Temperature 41 °F 36 °F 50 °F (1990)
Min Temperature 13 °F 10 °F -41 °F (1962)
Degree Days  
Heating Degree Days 38    
Month to date heating degree days 461  
Since 1 July heating degree days 3688  
Cooling Degree Days 0    
Month to date cooling degree days 0  
Year to date cooling degree days 0  
Moisture  
Dew Point 18 °F    
Average Humidity 70    
Maximum Humidity 92    
Minimum Humidity 48    
Precipitation  
Precipitation 0.11 in 0.02 in 0.28 in (1980)
Month to date precipitation 0.11 0.16  
Year to date precipitation 0.11 0.16  
Snow  
Snow 0.00 in 0.10 in 6.00 in (1997)
Month to date snowfall 0.0 1.3  
Since 1 July snowfall 14.6 14.7  
Snow Depth -    
Sea Level Pressure  
Sea Level Pressure 29.59 in    
Wind  
Wind Speed 10 mph (WNW)    
Max Wind Speed 25 mph    
Max Gust Speed 31 mph    
Visibility 4 miles    
Events Fog , Rain , Snow    
T = Trace of Precipitation, MM = Missing Value Source: NWS Daily Summary

Daily Weather History Graph

Daily Weather History Graph

Search for Another Location

Airport or City:

Trip Planner

Search our weather history database for the weather conditions in past years. The results will help you decide how hot, cold, wet, or windy it might be!

Date:

Astronomy

Jan. 10, 2013 Rise Set
Actual Time 8:04 AM MST 5:00 PM MST
Civil Twilight 7:30 AM MST 5:34 PM MST
Nautical Twilight 6:53 AM MST 6:11 PM MST
Astronomical Twilight 6:17 AM MST 6:47 PM MST
Moon 6:47 AM MST (1/10) 4:13 PM MST (1/10)
Length of Visible Light 10h 04m
Length of Day
8h 56m
Waning Crescent, 2% of the Moon is Illuminated
Jan 10
Waning Crescent
Jan 11
New
Jan 18
First Quarter
Jan 26
Full
Feb 3
Last Quarter

Hourly Weather History & Observations

Time (MST) Temp. Windchill Dew Point Humidity Pressure Visibility Wind Dir Wind Speed Gust Speed Precip Events Conditions
12:56 AM 37.0 °F 33.3 °F 19.9 °F 50% 29.63 in 10.0 mi ESE 4.6 mph - N/A   Clear
1:56 AM 37.0 °F 31.6 °F 19.9 °F 50% 29.62 in 10.0 mi SE 6.9 mph - N/A   Clear
2:56 AM 32.0 °F - 24.1 °F 73% 29.60 in 10.0 mi Calm Calm - N/A   Overcast
3:56 AM 34.0 °F 26.0 °F 25.0 °F 70% 29.58 in 10.0 mi WNW 10.4 mph - N/A   Overcast
4:56 AM 41.0 °F 38.0 °F 24.1 °F 51% 29.56 in 10.0 mi Variable 4.6 mph - N/A   Overcast
5:56 AM 37.9 °F 31.5 °F 30.0 °F 73% 29.59 in 10.0 mi North 9.2 mph - N/A   Overcast
6:08 AM 35.6 °F 27.1 °F 30.2 °F 81% 29.56 in 7.0 mi NNE 12.7 mph - 0.01 in Rain Light Rain
6:56 AM 35.1 °F 28.6 °F 32.0 °F 89% 29.59 in 8.0 mi NNE 8.1 mph - 0.03 in Rain Light Rain
7:38 AM 33.8 °F 27.0 °F 32.0 °F 93% 29.55 in 10.0 mi NNE 8.1 mph - 0.02 in   Overcast
7:56 AM 34.0 °F 27.2 °F 30.9 °F 89% 29.60 in 10.0 mi NNE 8.1 mph - 0.02 in   Overcast
8:56 AM 34.0 °F 31.0 °F 30.9 °F 89% 29.58 in 10.0 mi WNW 3.5 mph - N/A   Overcast
9:56 AM 35.1 °F 31.0 °F 32.0 °F 89% 29.57 in 10.0 mi NW 4.6 mph - N/A   Mostly Cloudy
10:56 AM 35.1 °F 30.1 °F 32.0 °F 89% 29.56 in 10.0 mi WNW 5.8 mph - N/A   Overcast
11:10 AM 33.8 °F 23.5 °F 30.2 °F 87% 29.49 in 10.0 mi NNW 16.1 mph - N/A   Overcast
11:29 AM 32.0 °F 21.2 °F 26.6 °F 80% 29.48 in 10.0 mi NNW 16.1 mph - N/A   Overcast
11:56 AM 30.9 °F 19.4 °F 26.1 °F 82% 29.53 in 10.0 mi North 17.3 mph - N/A   Overcast
12:26 PM 30.2 °F 18.9 °F 23.0 °F 75% 29.48 in 9.0 mi WNW 16.1 mph - N/A   Overcast
12:28 PM 30.2 °F 19.3 °F 24.8 °F 80% 29.48 in 1.0 mi WNW 15.0 mph - 0.00 in Snow Light Snow
12:42 PM 28.4 °F 17.5 °F 24.8 °F 86% 29.48 in 0.5 mi NW 13.8 mph - 0.00 in Snow Snow
12:53 PM 28.4 °F 17.5 °F 24.8 °F 86% 29.48 in 0.2 mi West 13.8 mph 21.9 mph 0.00 in Snow Heavy Snow
12:56 PM 28.0 °F 18.6 °F 24.1 °F 85% 29.55 in 0.2 mi WNW 10.4 mph - 0.00 in Fog , Snow Snow
1:15 PM 26.6 °F 15.7 °F 24.8 °F 93% 29.49 in 0.5 mi WNW 12.7 mph - 0.00 in Fog , Snow Snow
1:56 PM 26.1 °F 15.0 °F 21.9 °F 84% 29.58 in 0.5 mi WNW 12.7 mph - 0.01 in Fog , Snow Light Snow
2:23 PM 24.8 °F 12.9 °F 21.2 °F 86% 29.51 in 1.2 mi West 13.8 mph - 0.00 in Snow Light Snow
2:32 PM 24.8 °F 12.4 °F 19.4 °F 80% 29.52 in 1.8 mi West 15.0 mph - 0.00 in Snow Light Snow
2:40 PM 24.8 °F 12.9 °F 19.4 °F 80% 29.51 in 2.0 mi West 13.8 mph - 0.00 in Snow Light Snow
2:42 PM 24.8 °F 14.0 °F 19.4 °F 80% 29.51 in 1.5 mi West 11.5 mph - 0.00 in Snow Light Snow
2:48 PM 24.8 °F 12.9 °F 19.4 °F 80% 29.52 in 0.8 mi West 13.8 mph - 0.00 in Snow Light Snow
2:56 PM 24.1 °F 11.5 °F 19.0 °F 81% 29.62 in 0.5 mi West 15.0 mph - 0.00 in Snow Snow
3:07 PM 23.0 °F 11.7 °F 19.4 °F 86% 29.53 in 0.2 mi West 11.5 mph - 0.00 in Fog , Snow Snow
3:14 PM 24.8 °F 13.4 °F 19.4 °F 80% 29.53 in 0.5 mi West 12.7 mph - 0.00 in Fog , Snow Light Snow
3:26 PM 23.0 °F 13.1 °F 19.4 °F 86% 29.53 in 1.2 mi WSW 9.2 mph - 0.00 in Snow Light Snow
3:37 PM 21.2 °F 10.1 °F 17.6 °F 86% 29.53 in 0.5 mi WSW 10.4 mph - 0.00 in Fog , Snow Snow
3:41 PM 21.2 °F 10.9 °F 17.6 °F 86% 29.54 in 0.2 mi WSW 9.2 mph - 0.00 in Fog , Snow Snow
3:56 PM 21.9 °F 12.5 °F 19.0 °F 89% 29.64 in 0.2 mi SW 8.1 mph - 0.01 in Fog , Snow Heavy Snow
4:12 PM 21.2 °F 10.9 °F 17.6 °F 86% 29.55 in 0.2 mi SW 9.2 mph - 0.02 in Fog , Snow Heavy Snow
4:19 PM 21.2 °F 12.6 °F 17.6 °F 86% 29.55 in 0.5 mi SW 6.9 mph - 0.02 in Fog , Snow Snow
4:28 PM 21.2 °F 9.5 °F 19.4 °F 93% 29.55 in 0.2 mi West 11.5 mph - 0.02 in Fog , Snow Snow
4:56 PM 21.9 °F 11.7 °F 18.0 °F 85% 29.62 in 0.5 mi West 9.2 mph - 0.04 in Fog , Snow Snow
5:06 PM 21.2 °F 12.6 °F 19.4 °F 93% 29.55 in 1.5 mi WSW 6.9 mph - 0.00 in Snow Light Snow
5:09 PM 21.2 °F 14.9 °F 19.4 °F 93% 29.55 in 2.0 mi WSW 4.6 mph - 0.00 in Snow Light Snow
5:14 PM 21.2 °F 7.8 °F 19.4 °F 93% 29.55 in 3.0 mi NW 15.0 mph 23.0 mph 0.00 in Snow Light Snow
5:18 PM 21.2 °F 6.4 °F 17.6 °F 86% 29.55 in 1.0 mi NNW 18.4 mph 23.0 mph 0.00 in Snow Light Snow
5:23 PM 19.4 °F 3.2 °F 17.6 °F 93% 29.56 in 2.0 mi NNW 20.7 mph - 0.00 in Snow Light Snow
5:34 PM 19.4 °F 4.1 °F 15.8 °F 86% 29.57 in 2.0 mi WNW 18.4 mph - 0.00 in Snow Light Snow
5:40 PM 19.4 °F 4.1 °F 15.8 °F 86% 29.57 in 1.8 mi WNW 18.4 mph - 0.00 in Snow Light Snow
5:48 PM 19.4 °F 3.2 °F 15.8 °F 86% 29.58 in 1.0 mi NNW 20.7 mph - 0.00 in Snow Light Snow
5:56 PM 19.0 °F 2.4 °F 14.0 °F 81% 29.68 in 0.5 mi WNW 21.9 mph - 0.00 in Snow Snow
6:14 PM 17.6 °F 0.9 °F 14.0 °F 86% 29.60 in 0.8 mi NW 20.7 mph - 0.00 in Snow Light Snow
6:26 PM 17.6 °F 2.2 °F 14.0 °F 86% 29.60 in 1.0 mi WNW 17.3 mph - 0.00 in Snow Light Snow
6:33 PM 17.6 °F 2.7 °F 12.2 °F 79% 29.61 in 0.8 mi WNW 16.1 mph - 0.00 in Snow Light Snow
6:56 PM 17.1 °F 1.5 °F 12.9 °F 84% 29.73 in 0.8 mi NW 17.3 mph - 0.00 in Snow Light Snow
7:44 PM 15.8 °F 2.1 °F 12.2 °F 86% 29.64 in 1.0 mi WNW 12.7 mph - 0.00 in Snow Light Snow
7:56 PM 16.0 °F 1.7 °F 12.0 °F 84% 29.76 in 1.0 mi WNW 13.8 mph - 0.00 in Snow Light Snow
8:06 PM 15.8 °F 3.4 °F 12.2 °F 86% 29.64 in 1.2 mi West 10.4 mph - 0.00 in Snow Light Snow
8:20 PM 15.8 °F 3.4 °F 12.2 °F 86% 29.64 in 1.8 mi West 10.4 mph - 0.00 in Snow Light Snow
8:29 PM 15.8 °F 5.1 °F 12.2 °F 86% 29.65 in 2.5 mi WSW 8.1 mph - 0.00 in Snow Light Snow
8:42 PM 15.8 °F 4.2 °F 12.2 °F 86% 29.65 in 3.0 mi SW 9.2 mph - 0.00 in Snow Light Snow
8:48 PM 15.8 °F 3.4 °F 10.4 °F 79% 29.65 in 2.5 mi SW 10.4 mph - 0.00 in Snow Light Snow
8:56 PM 16.0 °F 3.6 °F 10.0 °F 77% 29.78 in 3.0 mi SW 10.4 mph - 0.00 in Snow Light Snow
9:04 PM 15.8 °F 2.7 °F 8.6 °F 73% 29.65 in 5.0 mi SW 11.5 mph - 0.00 in Snow Light Snow
9:19 PM 15.8 °F 4.2 °F 10.4 °F 79% 29.65 in 3.0 mi WSW 9.2 mph - 0.00 in Snow Light Snow
9:27 PM 15.8 °F 2.1 °F 10.4 °F 79% 29.65 in 2.0 mi WSW 12.7 mph - 0.00 in Snow Light Snow
9:56 PM 15.8 °F 2.7 °F 12.2 °F 86% 29.63 in 4.0 mi NW 11.5 mph - N/A Snow Light Snow
10:01 PM 15.8 °F 8.6 °F 12.2 °F 86% 29.62 in 4.0 mi Variable 4.6 mph - 0.00 in Snow Light Snow
10:04 PM 15.8 °F 7.2 °F 12.2 °F 86% 29.62 in 5.0 mi ENE 5.8 mph - 0.00 in Snow Light Snow
10:12 PM 15.8 °F 0.3 °F 10.4 °F 79% 29.62 in 5.0 mi North 16.1 mph - 0.00 in Snow Light Snow
10:19 PM 15.8 °F -0.2 °F 10.4 °F 79% 29.64 in 4.0 mi North 17.3 mph - 0.00 in Snow Light Snow
10:30 PM 15.8 °F 0.9 °F 10.4 °F 79% 29.64 in 3.0 mi North 15.0 mph - 0.00 in Snow Light Snow
10:40 PM 15.8 °F -0.2 °F 8.6 °F 73% 29.65 in 2.5 mi North 17.3 mph - 0.00 in Snow Light Snow
10:44 PM 14.0 °F -2.5 °F 8.6 °F 79% 29.65 in 1.8 mi North 17.3 mph - 0.00 in Snow Light Snow
10:56 PM 14.0 °F 0.5 °F 8.1 °F 77% 29.79 in 1.8 mi North 11.5 mph - 0.00 in Snow Light Snow
11:01 PM 14.0 °F -0.2 °F 6.8 °F 73% 29.67 in 3.0 mi North 12.7 mph - 0.00 in Snow Light Snow
11:56 PM 12.9 °F -0.9 °F 5.0 °F 71% 29.83 in 5.0 mi North 11.5 mph - 0.00 in Snow Light Snow